Time;durP1;ratioP1;P1;durP2;ratioP2;P2;SDS_P1;SDS_P2;PMS_P1;PMS_P2;Temp;Humidity;BMP_temperature;BMP_pressure;BME280_temperature;BME280_humidity;BME280_pressure;Samples;Min_cycle;Max_cycle;Signal;HPM_P1;HPM_P2
2023/06/11 00:01:24;;;;;;;10.43;3.88;;;;;;;;;;5088130;28;20076;-73
2023/06/11 00:03:53;;;;;;;8.25;3.17;;;;;;;;;;5088833;28;20058;-73
2023/06/11 00:06:22;;;;;;;11.05;3.35;;;;;;;;;;5078027;28;20044;-74
2023/06/11 00:08:52;;;;;;;10.80;3.10;;;;;;;;;;5090908;28;20059;-76
2023/06/11 00:11:19;;;;;;;8.70;3.47;;;;;;;;;;5089010;28;20040;-73
2023/06/11 00:13:45;;;;;;;9.27;3.28;;;;;;;;;;5080182;28;20377;-72
2023/06/11 00:16:13;;;;;;;9.48;3.38;;;;;;;;;;5088589;28;20067;-72
2023/06/11 00:18:42;;;;;;;10.20;3.35;;;;;;;;;;5090201;28;20119;-72
2023/06/11 00:21:09;;;;;;;6.40;3.10;;;;;;;;;;5087193;28;20048;-73
2023/06/11 00:23:37;;;;;;;9.98;3.33;;;;;;;;;;5086154;28;20051;-74
2023/06/11 00:26:05;;;;;;;13.50;3.40;;;;;;;;;;5070233;28;20113;-73
2023/06/11 00:28:31;;;;;;;5.72;2.83;;;;;;;;;;5086267;28;20483;-72
2023/06/11 00:30:58;;;;;;;8.82;3.22;;;;;;;;;;5089057;28;20040;-74
2023/06/11 00:33:24;;;;;;;6.22;2.85;;;;;;;;;;5089986;28;20135;-76
2023/06/11 00:35:51;;;;;;;7.72;3.22;;;;;;;;;;5091378;28;20426;-71
2023/06/11 00:38:17;;;;;;;9.00;3.10;;;;;;;;;;5083388;28;20504;-72
2023/06/11 00:40:43;;;;;;;10.70;3.53;;;;;;;;;;5088792;28;20059;-74
2023/06/11 00:43:11;;;;;;;8.07;3.25;;;;;;;;;;5086868;28;20055;-72
2023/06/11 00:45:37;;;;;;;8.73;3.42;;;;;;;;;;5090564;28;20043;-74
2023/06/11 00:48:03;;;;;;;5.72;2.85;;;;;;;;;;5080969;28;20046;-72
2023/06/11 00:50:34;;;;;;;7.25;2.90;;;;;;;;;;5090573;28;20056;-72
2023/06/11 00:53:01;;;;;;;8.25;2.80;;;;;;;;;;5084829;28;20044;-73
2023/06/11 00:55:27;;;;;;;6.28;2.97;;;;;;;;;;5082206;28;20118;-70
2023/06/11 00:57:53;;;;;;;8.07;2.50;;;;;;;;;;5083945;28;20055;-72
2023/06/11 01:00:20;;;;;;;6.97;2.92;;;;;;;;;;5088240;28;20392;-72
2023/06/11 01:02:59;;;;;;;6.68;2.78;;;;;;;;;;5085670;28;20196;-71
2023/06/11 01:05:31;;;;;;;8.35;2.92;;;;;;;;;;5083281;28;20106;-73
2023/06/11 01:07:58;;;;;;;8.15;2.92;;;;;;;;;;5081088;28;20040;-72
2023/06/11 01:10:26;;;;;;;7.43;3.10;;;;;;;;;;5086111;28;20052;-72
2023/06/11 01:12:53;;;;;;;5.57;2.58;;;;;;;;;;5085246;28;20497;-71
2023/06/11 01:15:20;;;;;;;8.77;2.90;;;;;;;;;;5084639;28;20032;-72
2023/06/11 01:18:22;;;;;;;8.07;2.80;;;;;;;;;;5084363;28;20522;-73
2023/06/11 01:21:24;;;;;;;5.15;2.55;;;;;;;;;;5064724;28;20675;-73
2023/06/11 01:24:11;;;;;;;8.73;2.95;;;;;;;;;;5027744;28;20524;-73
2023/06/11 01:26:50;;;;;;;6.03;2.67;;;;;;;;;;5057325;28;20060;-72
2023/06/11 01:29:17;;;;;;;6.13;2.60;;;;;;;;;;5060987;28;20072;-72
2023/06/11 01:31:44;;;;;;;7.25;2.85;;;;;;;;;;5061035;28;20101;-72
2023/06/11 01:34:10;;;;;;;6.50;2.75;;;;;;;;;;5064754;28;20052;-72
2023/06/11 01:36:37;;;;;;;6.25;2.88;;;;;;;;;;5062439;28;20041;-71
2023/06/11 01:39:04;;;;;;;6.78;3.08;;;;;;;;;;5063015;28;20054;-70
2023/06/11 01:41:30;;;;;;;7.47;2.65;;;;;;;;;;5058578;28;20049;-73
2023/06/11 01:43:56;;;;;;;7.43;3.13;;;;;;;;;;5059897;28;20049;-71
2023/06/11 01:46:22;;;;;;;9.05;3.20;;;;;;;;;;5062480;28;20062;-72
2023/06/11 01:48:48;;;;;;;7.57;3.45;;;;;;;;;;5064028;28;20041;-73
2023/06/11 01:51:14;;;;;;;17.10;3.97;;;;;;;;;;5069929;28;20052;-72
2023/06/11 01:53:42;;;;;;;11.10;3.95;;;;;;;;;;5063927;28;20076;-70
2023/06/11 01:56:09;;;;;;;11.82;3.53;;;;;;;;;;5076474;28;20043;-69
2023/06/11 01:58:37;;;;;;;6.85;3.80;;;;;;;;;;5085346;28;20044;-72
2023/06/11 02:01:03;;;;;;;12.00;3.60;;;;;;;;;;5091888;28;20066;-72
2023/06/11 02:03:30;;;;;;;7.22;3.65;;;;;;;;;;5090251;28;20104;-71
2023/06/11 02:05:56;;;;;;;10.55;4.10;;;;;;;;;;5088818;28;20416;-72
2023/06/11 02:08:22;;;;;;;10.15;4.15;;;;;;;;;;5086845;28;20221;-72
2023/06/11 02:10:48;;;;;;;8.43;3.75;;;;;;;;;;5087227;28;20051;-70
2023/06/11 02:13:14;;;;;;;10.63;4.20;;;;;;;;;;5086614;28;20165;-71
2023/06/11 02:15:40;;;;;;;18.38;4.45;;;;;;;;;;5089005;28;20040;-71
2023/06/11 02:18:06;;;;;;;10.30;4.15;;;;;;;;;;5084954;28;20079;-72
2023/06/11 02:20:32;;;;;;;9.40;4.10;;;;;;;;;;5090767;28;20058;-71
2023/06/11 02:22:58;;;;;;;8.90;3.65;;;;;;;;;;5088748;28;20048;-72
2023/06/11 02:25:24;;;;;;;8.95;3.42;;;;;;;;;;5088107;28;20575;-71
2023/06/11 02:27:50;;;;;;;11.48;3.38;;;;;;;;;;5086602;28;20104;-70
2023/06/11 02:30:16;;;;;;;10.23;3.88;;;;;;;;;;5086325;28;20055;-71
2023/06/11 02:32:44;;;;;;;13.68;4.07;;;;;;;;;;5085382;28;20036;-71
2023/06/11 02:35:11;;;;;;;11.25;4.10;;;;;;;;;;5092961;28;20503;-71
2023/06/11 02:37:37;;;;;;;10.80;4.50;;;;;;;;;;5089708;28;20073;-71
2023/06/11 02:40:03;;;;;;;12.85;4.93;;;;;;;;;;5092265;28;20059;-71
2023/06/11 02:42:29;;;;;;;11.60;4.72;;;;;;;;;;5099238;27;20102;-71
2023/06/11 02:44:55;;;;;;;16.67;5.25;;;;;;;;;;5085624;28;20056;-69
2023/06/11 02:47:23;;;;;;;14.23;6.07;;;;;;;;;;5086470;28;20062;-70
2023/06/11 02:49:49;;;;;;;21.92;6.43;;;;;;;;;;5084108;28;20047;-73
2023/06/11 02:52:14;;;;;;;20.60;5.90;;;;;;;;;;5088762;28;20104;-70
2023/06/11 02:54:40;;;;;;;18.42;5.38;;;;;;;;;;5089211;28;20056;-71
2023/06/11 02:57:06;;;;;;;13.63;5.70;;;;;;;;;;5085433;28;20036;-71
2023/06/11 02:59:32;;;;;;;16.65;6.10;;;;;;;;;;5086413;28;20105;-72
2023/06/11 03:01:58;;;;;;;18.85;5.93;;;;;;;;;;5086097;28;20040;-72
2023/06/11 03:04:24;;;;;;;18.05;6.40;;;;;;;;;;5087386;28;20054;-70
2023/06/11 03:06:50;;;;;;;20.25;7.18;;;;;;;;;;5085509;28;20135;-70
2023/06/11 03:09:17;;;;;;;18.08;7.25;;;;;;;;;;5086790;28;20111;-71
2023/06/11 03:11:42;;;;;;;18.52;7.53;;;;;;;;;;5086988;28;20466;-71
2023/06/11 03:14:09;;;;;;;24.02;8.57;;;;;;;;;;5089865;28;20075;-73
2023/06/11 03:16:34;;;;;;;23.58;8.20;;;;;;;;;;5087174;28;20071;-71
2023/06/11 03:19:01;;;;;;;25.50;9.40;;;;;;;;;;5089834;28;20062;-72
2023/06/11 03:21:26;;;;;;;22.70;9.93;;;;;;;;;;5088901;28;20060;-73
2023/06/11 03:23:52;;;;;;;29.73;11.15;;;;;;;;;;5086862;28;20048;-71
2023/06/11 03:26:18;;;;;;;28.92;11.05;;;;;;;;;;5088831;28;20483;-70
2023/06/11 03:28:44;;;;;;;30.42;11.18;;;;;;;;;;5087915;28;20048;-71
2023/06/11 03:31:10;;;;;;;28.63;10.73;;;;;;;;;;5089033;28;20052;-70
2023/06/11 03:33:36;;;;;;;29.55;11.52;;;;;;;;;;5083515;28;20054;-71
2023/06/11 03:36:02;;;;;;;26.98;11.40;;;;;;;;;;5080570;28;20428;-70
2023/06/11 03:38:29;;;;;;;33.83;11.95;;;;;;;;;;5081052;28;20066;-71
2023/06/11 03:40:55;;;;;;;30.02;11.93;;;;;;;;;;5089271;28;20048;-70
2023/06/11 03:43:21;;;;;;;31.25;10.93;;;;;;;;;;5091848;28;20085;-70
2023/06/11 03:45:46;;;;;;;28.77;11.13;;;;;;;;;;5089322;28;20129;-72
2023/06/11 03:48:12;;;;;;;27.15;10.50;;;;;;;;;;5090505;28;20035;-71
2023/06/11 03:50:38;;;;;;;28.38;10.02;;;;;;;;;;5088416;28;20398;-72
2023/06/11 03:53:04;;;;;;;25.42;9.95;;;;;;;;;;5084172;28;20143;-71
2023/06/11 03:55:30;;;;;;;31.70;10.60;;;;;;;;;;5084598;28;20526;-70
2023/06/11 03:57:57;;;;;;;32.40;10.32;;;;;;;;;;5086035;28;20794;-71
2023/06/11 04:00:23;;;;;;;29.58;10.13;;;;;;;;;;5084277;28;20051;-71
2023/06/11 04:02:49;;;;;;;27.88;9.73;;;;;;;;;;5090071;28;20055;-71
2023/06/11 04:05:15;;;;;;;26.42;10.23;;;;;;;;;;5088852;28;20048;-70
2023/06/11 04:07:42;;;;;;;31.00;9.60;;;;;;;;;;5081405;28;20517;-75
2023/06/11 04:10:08;;;;;;;26.83;10.05;;;;;;;;;;5085445;28;20043;-73
2023/06/11 04:12:34;;;;;;;29.85;9.77;;;;;;;;;;5089103;28;20068;-72
2023/06/11 04:15:00;;;;;;;23.83;9.32;;;;;;;;;;5086193;28;20070;-73
2023/06/11 04:17:26;;;;;;;19.92;9.13;;;;;;;;;;5087790;28;20043;-70
2023/06/11 04:19:52;;;;;;;27.42;8.90;;;;;;;;;;5086333;28;20048;-72
2023/06/11 04:22:18;;;;;;;23.92;8.45;;;;;;;;;;5089440;28;20109;-70
2023/06/11 04:24:44;;;;;;;26.40;9.10;;;;;;;;;;5089304;28;20052;-71
2023/06/11 04:27:11;;;;;;;28.52;8.77;;;;;;;;;;5085653;28;20051;-68
2023/06/11 04:29:37;;;;;;;26.15;8.00;;;;;;;;;;5074229;28;20100;-70
2023/06/11 04:32:03;;;;;;;24.77;8.45;;;;;;;;;;5091229;28;20572;-71
2023/06/11 04:34:30;;;;;;;23.15;8.38;;;;;;;;;;5085773;28;20052;-70
2023/06/11 04:36:56;;;;;;;25.52;8.20;;;;;;;;;;5089004;28;20059;-71
2023/06/11 04:39:22;;;;;;;19.92;7.53;;;;;;;;;;5088925;28;20457;-71
2023/06/11 04:41:51;;;;;;;22.85;7.97;;;;;;;;;;5089772;28;20054;-73
2023/06/11 04:44:20;;;;;;;22.55;7.82;;;;;;;;;;5084192;28;20055;-72
2023/06/11 04:46:47;;;;;;;22.08;7.97;;;;;;;;;;5103040;28;20428;-70
2023/06/11 04:49:20;;;;;;;18.85;7.40;;;;;;;;;;5086081;28;20044;-70
2023/06/11 04:51:48;;;;;;;17.77;7.75;;;;;;;;;;5085264;28;20044;-71
2023/06/11 04:54:14;;;;;;;23.95;8.35;;;;;;;;;;5083329;28;20056;-71
2023/06/11 04:56:40;;;;;;;21.80;7.85;;;;;;;;;;5084676;28;20044;-72
2023/06/11 04:59:06;;;;;;;22.80;8.48;;;;;;;;;;5086104;28;20062;-73
2023/06/11 05:01:32;;;;;;;21.88;8.70;;;;;;;;;;5078816;28;20048;-70
2023/06/11 05:03:59;;;;;;;21.73;8.60;;;;;;;;;;5084962;28;20404;-70
2023/06/11 05:06:27;;;;;;;27.90;9.15;;;;;;;;;;5086246;28;20136;-71
2023/06/11 05:08:54;;;;;;;24.45;8.77;;;;;;;;;;5087416;28;20054;-71
2023/06/11 05:11:21;;;;;;;23.13;9.02;;;;;;;;;;5089067;28;20127;-72
2023/06/11 05:13:47;;;;;;;26.10;8.82;;;;;;;;;;5085411;28;20179;-73
2023/06/11 05:16:14;;;;;;;27.73;9.40;;;;;;;;;;5083643;28;20052;-70
2023/06/11 05:18:39;;;;;;;25.45;9.65;;;;;;;;;;5084713;28;20061;-72
2023/06/11 05:21:06;;;;;;;21.95;9.98;;;;;;;;;;5086563;28;20070;-73
2023/06/11 05:23:33;;;;;;;23.17;8.90;;;;;;;;;;5089577;28;20075;-72
2023/06/11 05:26:01;;;;;;;24.25;9.27;;;;;;;;;;5088249;28;20055;-73
2023/06/11 05:28:27;;;;;;;22.10;9.70;;;;;;;;;;5084108;28;20052;-73
2023/06/11 05:30:54;;;;;;;22.90;11.27;;;;;;;;;;5084227;28;20499;-72
2023/06/11 05:33:20;;;;;;;26.70;9.73;;;;;;;;;;5086137;28;20036;-70
2023/06/11 05:35:48;;;;;;;23.02;9.55;;;;;;;;;;5089379;28;20048;-73
2023/06/11 05:38:13;;;;;;;22.85;10.63;;;;;;;;;;5085880;28;20407;-72
2023/06/11 05:40:40;;;;;;;24.73;11.48;;;;;;;;;;5089516;28;20131;-73
2023/06/11 05:43:06;;;;;;;25.73;11.35;;;;;;;;;;5089215;28;20284;-71
2023/06/11 05:45:33;;;;;;;27.20;11.35;;;;;;;;;;5088853;28;20123;-72
2023/06/11 05:47:59;;;;;;;25.30;11.25;;;;;;;;;;5088688;28;20036;-71
2023/06/11 05:50:26;;;;;;;22.67;10.60;;;;;;;;;;5085969;28;20044;-71
2023/06/11 05:52:52;;;;;;;29.23;10.10;;;;;;;;;;5085348;28;20075;-71
2023/06/11 05:55:18;;;;;;;23.90;10.00;;;;;;;;;;5082720;28;20109;-72
2023/06/11 05:57:45;;;;;;;24.05;9.35;;;;;;;;;;5085902;28;20048;-70
2023/06/11 06:00:14;;;;;;;19.58;8.50;;;;;;;;;;5082901;28;20106;-68
2023/06/11 06:02:40;;;;;;;20.15;9.75;;;;;;;;;;5083477;28;20175;-69
2023/06/11 06:05:07;;;;;;;26.77;10.13;;;;;;;;;;5087131;28;20052;-70
2023/06/11 06:07:34;;;;;;;26.25;9.35;;;;;;;;;;5086065;28;20051;-70
2023/06/11 06:10:02;;;;;;;23.33;8.88;;;;;;;;;;5087402;28;20407;-69
2023/06/11 06:12:28;;;;;;;20.05;8.93;;;;;;;;;;5081396;28;20427;-69
2023/06/11 06:14:54;;;;;;;21.15;8.98;;;;;;;;;;5087707;28;20044;-71
2023/06/11 06:17:20;;;;;;;20.95;9.07;;;;;;;;;;5081086;28;20074;-71
2023/06/11 06:19:46;;;;;;;23.42;8.73;;;;;;;;;;5084916;28;20063;-70
2023/06/11 06:22:13;;;;;;;19.95;8.55;;;;;;;;;;5080736;28;20500;-69
2023/06/11 06:24:39;;;;;;;20.55;8.63;;;;;;;;;;5077786;28;20073;-70
2023/06/11 06:27:06;;;;;;;20.45;8.15;;;;;;;;;;5078700;28;20044;-72
2023/06/11 06:29:33;;;;;;;18.77;8.48;;;;;;;;;;5072823;28;20046;-70
2023/06/11 06:31:58;;;;;;;20.77;8.35;;;;;;;;;;5079859;28;20044;-70
2023/06/11 06:34:28;;;;;;;18.67;7.55;;;;;;;;;;5078392;28;20402;-69
2023/06/11 06:36:54;;;;;;;18.92;8.10;;;;;;;;;;5075198;28;20051;-68
2023/06/11 06:39:20;;;;;;;18.77;7.65;;;;;;;;;;5077785;28;20052;-69
2023/06/11 06:41:46;;;;;;;19.92;6.72;;;;;;;;;;5077866;28;20392;-75
2023/06/11 06:44:13;;;;;;;19.80;7.72;;;;;;;;;;5075966;28;20036;-75
2023/06/11 06:46:39;;;;;;;18.55;7.43;;;;;;;;;;5075397;28;20563;-69
2023/06/11 06:49:05;;;;;;;13.95;6.53;;;;;;;;;;5076084;28;20051;-69
2023/06/11 06:51:32;;;;;;;19.02;8.10;;;;;;;;;;5076249;28;20063;-69
2023/06/11 06:54:00;;;;;;;23.58;7.78;;;;;;;;;;5079311;28;20051;-73
2023/06/11 06:56:26;;;;;;;22.98;9.13;;;;;;;;;;5070928;28;20424;-71
2023/06/11 06:58:53;;;;;;;18.35;7.75;;;;;;;;;;5078003;28;20074;-70
2023/06/11 07:01:18;;;;;;;22.45;8.48;;;;;;;;;;5072497;28;20048;-71
2023/06/11 07:03:45;;;;;;;18.55;7.55;;;;;;;;;;5076426;28;20494;-71
2023/06/11 07:06:11;;;;;;;17.42;6.85;;;;;;;;;;5076506;28;20040;-73
2023/06/11 07:08:38;;;;;;;18.35;6.80;;;;;;;;;;5079084;28;20527;-70
2023/06/11 07:11:04;;;;;;;15.60;6.32;;;;;;;;;;5078115;28;20123;-68
2023/06/11 07:13:31;;;;;;;16.92;6.38;;;;;;;;;;5077670;28;20044;-69
2023/06/11 07:15:56;;;;;;;18.30;7.07;;;;;;;;;;5075856;28;20047;-72
2023/06/11 07:18:22;;;;;;;13.25;6.07;;;;;;;;;;5077509;28;20649;-69
2023/06/11 07:20:48;;;;;;;17.88;6.35;;;;;;;;;;5080828;28;20036;-73
2023/06/11 07:23:32;;;;;;;18.30;5.97;;;;;;;;;;5075585;28;20044;-71
2023/06/11 07:26:38;;;;;;;12.57;5.15;;;;;;;;;;5073986;28;20059;-73
2023/06/11 07:30:18;;;;;;;19.92;6.03;;;;;;;;;;5071758;28;20044;-73
2023/06/11 07:33:59;;;;;;;14.63;5.93;;;;;;;;;;5075648;28;20467;-69
2023/06/11 07:37:41;;;;;;;17.80;5.57;;;;;;;;;;5077945;28;20382;-70
2023/06/11 07:41:21;;;;;;;13.07;6.00;;;;;;;;;;5074331;28;20090;-71
2023/06/11 07:45:02;;;;;;;13.52;6.05;;;;;;;;;;5070190;28;20056;-71
2023/06/11 07:48:43;;;;;;;12.98;5.95;;;;;;;;;;5066690;28;20044;-70
2023/06/11 07:52:22;;;;;;;14.02;5.32;;;;;;;;;;5063763;28;20040;-72
2023/06/11 07:56:03;;;;;;;20.13;6.45;;;;;;;;;;5061889;28;20559;-73
2023/06/11 07:59:07;;;;;;;9.50;4.40;;;;;;;;;;5061198;28;20044;-75
2023/06/11 08:02:14;;;;;;;10.45;5.40;;;;;;;;;;5060615;28;20591;-73
2023/06/11 08:05:56;;;;;;;17.40;6.85;;;;;;;;;;5057589;28;20734;-71
2023/06/11 08:09:36;;;;;;;17.48;6.25;;;;;;;;;;5063103;28;20064;-70
2023/06/11 08:13:17;;;;;;;12.27;4.70;;;;;;;;;;5063299;28;20674;-69
2023/06/11 08:16:57;;;;;;;14.52;4.95;;;;;;;;;;5059987;28;20204;-71
2023/06/11 08:20:37;;;;;;;16.85;5.40;;;;;;;;;;5065867;28;20164;-69
2023/06/11 08:24:21;;;;;;;10.85;4.90;;;;;;;;;;5067820;28;20150;-71
2023/06/11 08:27:59;;;;;;;15.27;4.93;;;;;;;;;;5062929;28;20130;-71
2023/06/11 08:31:40;;;;;;;11.43;5.22;;;;;;;;;;5063877;28;20048;-73
2023/06/11 08:35:20;;;;;;;11.05;5.00;;;;;;;;;;5064840;28;20040;-68
2023/06/11 08:39:00;;;;;;;15.90;4.70;;;;;;;;;;5068605;28;20392;-76
2023/06/11 08:42:40;;;;;;;9.57;4.60;;;;;;;;;;5070749;28;20058;-69
2023/06/11 08:46:20;;;;;;;11.85;4.53;;;;;;;;;;5080921;28;20048;-75
2023/06/11 08:50:02;;;;;;;13.38;4.32;;;;;;;;;;5082505;28;20765;-74
2023/06/11 08:53:41;;;;;;;21.85;7.53;;;;;;;;;;5084400;28;20176;-72
2023/06/11 08:57:21;;;;;;;17.05;6.50;;;;;;;;;;5082878;28;20044;-75
2023/06/11 09:01:03;;;;;;;12.07;4.90;;;;;;;;;;5087341;28;20040;-74
2023/06/11 09:04:43;;;;;;;21.08;8.18;;;;;;;;;;5083215;28;20113;-75
2023/06/11 09:08:30;;;;;;;14.57;4.97;;;;;;;;;;5080249;28;20059;-74
2023/06/11 09:12:16;;;;;;;10.80;3.90;;;;;;;;;;5085591;28;20064;-70
2023/06/11 09:15:57;;;;;;;9.82;4.20;;;;;;;;;;5081139;28;20259;-72
2023/06/11 09:19:37;;;;;;;14.13;4.60;;;;;;;;;;5086017;28;20047;-74
2023/06/11 09:23:17;;;;;;;9.63;4.00;;;;;;;;;;5080124;28;20385;-74
2023/06/11 09:26:58;;;;;;;8.73;3.65;;;;;;;;;;5084431;28;20036;-76
2023/06/11 09:30:50;;;;;;;12.43;3.75;;;;;;;;;;5083957;28;20048;-72
2023/06/11 09:34:31;;;;;;;12.00;4.40;;;;;;;;;;5084247;28;20066;-74
2023/06/11 09:38:11;;;;;;;9.48;4.10;;;;;;;;;;5082102;28;20056;-78
2023/06/11 09:41:51;;;;;;;11.75;4.10;;;;;;;;;;5082909;28;20453;-74
2023/06/11 09:45:34;;;;;;;9.52;4.03;;;;;;;;;;5085553;28;20082;-75
2023/06/11 09:49:15;;;;;;;10.35;3.33;;;;;;;;;;5082467;28;20051;-75
2023/06/11 09:52:55;;;;;;;18.23;3.50;;;;;;;;;;5086826;28;20048;-74
2023/06/11 09:56:36;;;;;;;8.50;3.33;;;;;;;;;;5080834;28;20062;-75
2023/06/11 10:00:16;;;;;;;10.40;3.10;;;;;;;;;;5085701;28;20085;-72
2023/06/11 10:03:56;;;;;;;8.82;3.13;;;;;;;;;;5079106;28;20064;-72
2023/06/11 10:07:01;;;;;;;9.20;3.55;;;;;;;;;;5088707;28;20572;-74
2023/06/11 10:10:07;;;;;;;9.77;3.80;;;;;;;;;;5084526;28;20048;-73
2023/06/11 10:13:50;;;;;;;9.20;4.00;;;;;;;;;;5082986;28;20648;-71
2023/06/11 10:17:30;;;;;;;10.43;3.60;;;;;;;;;;5087802;28;20061;-71
2023/06/11 10:20:46;;;;;;;10.20;4.22;;;;;;;;;;5085871;28;20060;-74
2023/06/11 10:24:39;;;;;;;12.15;3.70;;;;;;;;;;5087899;28;20395;-75
2023/06/11 10:28:20;;;;;;;12.80;3.72;;;;;;;;;;5086702;28;20123;-74
2023/06/11 10:32:04;;;;;;;27.50;6.15;;;;;;;;;;5087929;28;20663;-72
2023/06/11 10:35:46;;;;;;;16.35;4.88;;;;;;;;;;5082669;28;20051;-77
2023/06/11 10:39:25;;;;;;;9.10;3.42;;;;;;;;;;5086319;28;20093;-69
2023/06/11 10:42:38;;;;;;;10.95;3.75;;;;;;;;;;5085946;28;20052;-62
2023/06/11 10:45:53;;;;;;;5.93;2.80;;;;;;;;;;5080103;28;20052;-70
2023/06/11 10:48:54;;;;;;;6.78;3.17;;;;;;;;;;5082073;28;20138;-73
2023/06/11 10:51:23;;;;;;;11.02;3.00;;;;;;;;;;5088942;28;20048;-73
2023/06/11 10:53:58;;;;;;;10.02;3.33;;;;;;;;;;5090688;28;20593;-74
2023/06/11 10:56:28;;;;;;;7.53;3.05;;;;;;;;;;5080790;28;20075;-77
2023/06/11 10:58:55;;;;;;;13.15;3.13;;;;;;;;;;5086225;28;20100;-77
2023/06/11 11:01:22;;;;;;;12.48;3.08;;;;;;;;;;5089229;28;20044;-78
2023/06/11 11:03:52;;;;;;;10.30;3.17;;;;;;;;;;5089772;28;20036;-78
2023/06/11 11:06:26;;;;;;;8.63;3.08;;;;;;;;;;5084011;28;20424;-78
2023/06/11 11:08:55;;;;;;;8.93;3.25;;;;;;;;;;5089868;28;20085;-77
2023/06/11 11:11:26;;;;;;;6.30;3.00;;;;;;;;;;5082410;28;20040;-75
2023/06/11 11:13:53;;;;;;;9.98;3.05;;;;;;;;;;5088004;28;20044;-75
2023/06/11 11:17:00;;;;;;;7.80;2.72;;;;;;;;;;5083314;28;20051;-76
2023/06/11 11:20:50;;;;;;;9.23;2.92;;;;;;;;;;5088947;28;20426;-76
2023/06/11 11:24:30;;;;;;;10.73;3.10;;;;;;;;;;5083565;28;20660;-78
2023/06/11 11:28:11;;;;;;;6.25;2.88;;;;;;;;;;5081835;28;20047;-81
2023/06/11 11:31:51;;;;;;;5.32;2.88;;;;;;;;;;5084379;28;20093;-77
2023/06/11 11:35:31;;;;;;;8.00;2.90;;;;;;;;;;5085953;28;20044;-78
2023/06/11 11:39:15;;;;;;;8.07;3.10;;;;;;;;;;5088152;28;20080;-77
2023/06/11 11:43:05;;;;;;;6.70;3.00;;;;;;;;;;5085828;28;20112;-75
2023/06/11 11:46:54;;;;;;;10.23;3.15;;;;;;;;;;5088249;28;20044;-75
2023/06/11 11:50:45;;;;;;;6.45;2.97;;;;;;;;;;5088752;28;20105;-76
2023/06/11 11:54:26;;;;;;;9.85;3.30;;;;;;;;;;5086631;28;20044;-75
2023/06/11 11:58:06;;;;;;;9.68;3.20;;;;;;;;;;5086286;28;20048;-76
2023/06/11 12:01:46;;;;;;;7.38;3.00;;;;;;;;;;5090196;28;20064;-76
2023/06/11 12:05:29;;;;;;;11.15;3.22;;;;;;;;;;5091618;28;20417;-77
2023/06/11 12:09:08;;;;;;;16.45;4.35;;;;;;;;;;5077105;28;20056;-76
2023/06/11 12:12:48;;;;;;;9.23;3.00;;;;;;;;;;5086598;28;20525;-77
2023/06/11 12:16:32;;;;;;;10.07;3.42;;;;;;;;;;5084645;28;20055;-75
2023/06/11 12:20:11;;;;;;;8.35;3.38;;;;;;;;;;5083758;28;20573;-75
2023/06/11 12:23:51;;;;;;;7.88;3.17;;;;;;;;;;5082417;28;20032;-75
2023/06/11 12:27:32;;;;;;;7.00;3.00;;;;;;;;;;5086972;28;20097;-78
2023/06/11 12:31:13;;;;;;;10.38;3.17;;;;;;;;;;5083987;28;20083;-76
2023/06/11 12:34:53;;;;;;;7.90;3.03;;;;;;;;;;5074775;28;20526;-78
2023/06/11 12:38:35;;;;;;;6.90;2.78;;;;;;;;;;5086074;28;20044;-71
2023/06/11 12:42:15;;;;;;;8.38;2.90;;;;;;;;;;5086730;28;20256;-71
2023/06/11 12:45:56;;;;;;;11.30;3.20;;;;;;;;;;5088099;28;20418;-74
2023/06/11 12:49:36;;;;;;;6.53;2.60;;;;;;;;;;5080967;28;20066;-73
2023/06/11 12:53:16;;;;;;;7.25;2.70;;;;;;;;;;5088209;28;20087;-78
2023/06/11 12:56:57;;;;;;;10.18;3.10;;;;;;;;;;5086547;28;20380;-78
2023/06/11 13:00:38;;;;;;;15.63;3.67;;;;;;;;;;5082748;28;20050;-76
2023/06/11 13:04:20;;;;;;;8.82;3.10;;;;;;;;;;5081176;28;20577;-75
2023/06/11 13:08:00;;;;;;;8.80;2.97;;;;;;;;;;5077541;28;20040;-74
2023/06/11 13:11:41;;;;;;;9.95;3.10;;;;;;;;;;5083861;28;20040;-76
2023/06/11 13:15:22;;;;;;;7.82;2.60;;;;;;;;;;5078836;28;20054;-76
2023/06/11 13:19:04;;;;;;;7.80;2.63;;;;;;;;;;5075242;28;20047;-77
2023/06/11 13:22:45;;;;;;;10.55;3.20;;;;;;;;;;5072520;28;20047;-75
2023/06/11 13:26:26;;;;;;;8.50;2.97;;;;;;;;;;5076052;28;20052;-76
2023/06/11 13:30:09;;;;;;;9.02;3.00;;;;;;;;;;5070460;28;20097;-74
2023/06/11 13:33:47;;;;;;;8.85;3.38;;;;;;;;;;5070139;28;20589;-78
2023/06/11 13:37:28;;;;;;;8.23;3.00;;;;;;;;;;5081310;28;20044;-80
2023/06/11 13:41:09;;;;;;;6.43;3.00;;;;;;;;;;5092519;28;20035;-78
2023/06/11 13:44:49;;;;;;;7.00;3.08;;;;;;;;;;5090279;28;20048;-77
2023/06/11 13:48:31;;;;;;;5.80;2.40;;;;;;;;;;5092427;28;20097;-81
2023/06/11 13:52:11;;;;;;;4.88;2.25;;;;;;;;;;5089738;28;20048;-79
2023/06/11 13:55:53;;;;;;;7.38;2.55;;;;;;;;;;5100917;28;20182;-81
2023/06/11 13:59:35;;;;;;;7.28;2.95;;;;;;;;;;5098192;28;20040;-78
2023/06/11 14:03:16;;;;;;;7.35;2.80;;;;;;;;;;5098318;28;20047;-79
2023/06/11 14:07:00;;;;;;;7.82;2.50;;;;;;;;;;5104294;28;20052;-82
2023/06/11 14:10:40;;;;;;;8.10;2.65;;;;;;;;;;5095659;28;20085;-82
2023/06/11 14:14:20;;;;;;;6.07;2.40;;;;;;;;;;5099417;28;20444;-80
2023/06/11 14:18:01;;;;;;;7.05;2.58;;;;;;;;;;5095465;28;20036;-82
2023/06/11 14:21:41;;;;;;;6.43;2.55;;;;;;;;;;5093754;28;20054;-79
2023/06/11 14:25:21;;;;;;;8.93;2.65;;;;;;;;;;5092870;28;20048;-81
2023/06/11 14:29:02;;;;;;;9.27;3.05;;;;;;;;;;5099086;28;20043;-80
2023/06/11 14:32:43;;;;;;;13.48;3.47;;;;;;;;;;5100998;28;20499;-82
2023/06/11 14:36:24;;;;;;;6.95;2.45;;;;;;;;;;5094255;28;21222;-83
2023/06/11 14:40:07;;;;;;;5.82;2.50;;;;;;;;;;5087594;28;20135;-78
2023/06/11 14:43:49;;;;;;;9.48;2.40;;;;;;;;;;5087566;28;20123;-80
2023/06/11 14:47:30;;;;;;;8.15;2.72;;;;;;;;;;5083212;28;20052;-75
2023/06/11 14:51:10;;;;;;;7.20;2.35;;;;;;;;;;5090234;28;20163;-74
2023/06/11 14:54:51;;;;;;;8.18;2.30;;;;;;;;;;5087727;28;20112;-79
2023/06/11 14:58:32;;;;;;;7.82;2.42;;;;;;;;;;5088887;28;20101;-75
2023/06/11 15:02:15;;;;;;;6.10;2.53;;;;;;;;;;5087867;28;20394;-76
2023/06/11 15:05:56;;;;;;;8.32;2.67;;;;;;;;;;5082618;28;20064;-79
2023/06/11 15:09:36;;;;;;;8.70;2.40;;;;;;;;;;5084241;28;20085;-77
2023/06/11 15:13:17;;;;;;;8.25;2.78;;;;;;;;;;5081399;28;20041;-74
2023/06/11 15:16:58;;;;;;;5.68;2.13;;;;;;;;;;5081285;28;20456;-77
2023/06/11 15:20:38;;;;;;;6.32;2.83;;;;;;;;;;5097224;28;20095;-81
2023/06/11 15:24:19;;;;;;;7.82;2.30;;;;;;;;;;5097799;28;20073;-82
2023/06/11 15:28:02;;;;;;;8.40;2.92;;;;;;;;;;5083559;28;20040;-73
2023/06/11 15:31:46;;;;;;;6.60;3.00;;;;;;;;;;5089972;28;20054;-74
2023/06/11 15:35:27;;;;;;;9.88;2.40;;;;;;;;;;5087063;28;20484;-73
2023/06/11 15:39:07;;;;;;;10.18;3.40;;;;;;;;;;5084627;28;20644;-80
2023/06/11 15:42:48;;;;;;;8.35;3.00;;;;;;;;;;5080626;28;20055;-78
2023/06/11 15:46:28;;;;;;;8.95;3.80;;;;;;;;;;5086373;28;20055;-77
2023/06/11 15:50:08;;;;;;;6.47;2.90;;;;;;;;;;5087483;28;20044;-78
2023/06/11 15:53:50;;;;;;;11.18;3.28;;;;;;;;;;5085717;28;20047;-79
2023/06/11 15:57:30;;;;;;;9.57;2.90;;;;;;;;;;5072406;28;20555;-76
2023/06/11 16:01:10;;;;;;;13.57;3.00;;;;;;;;;;5081642;28;20044;-76
2023/06/11 16:04:51;;;;;;;7.45;2.67;;;;;;;;;;5090360;28;20502;-76
2023/06/11 16:08:33;;;;;;;9.35;3.10;;;;;;;;;;5087296;28;20055;-76
2023/06/11 16:12:14;;;;;;;11.68;2.58;;;;;;;;;;5087453;28;20063;-76
2023/06/11 16:15:55;;;;;;;10.52;2.80;;;;;;;;;;5090487;28;20063;-78
2023/06/11 16:19:37;;;;;;;10.05;3.20;;;;;;;;;;5082031;28;20499;-77
2023/06/11 16:23:19;;;;;;;10.40;2.88;;;;;;;;;;5086370;28;20048;-77
2023/06/11 16:26:57;;;;;;;13.13;3.63;;;;;;;;;;5089406;28;20079;-75
2023/06/11 16:30:38;;;;;;;9.85;3.40;;;;;;;;;;5085772;28;20039;-76
2023/06/11 16:34:18;;;;;;;9.88;3.17;;;;;;;;;;5087155;28;20086;-73
2023/06/11 16:37:58;;;;;;;11.90;3.00;;;;;;;;;;5088233;28;20048;-76
2023/06/11 16:41:39;;;;;;;8.77;2.75;;;;;;;;;;5087727;28;20043;-75
2023/06/11 16:45:19;;;;;;;11.50;3.30;;;;;;;;;;5092741;28;20621;-76
2023/06/11 16:48:59;;;;;;;12.15;3.17;;;;;;;;;;5083169;28;20078;-72
2023/06/11 16:52:40;;;;;;;10.55;3.70;;;;;;;;;;5086073;28;20474;-71
2023/06/11 16:56:25;;;;;;;9.48;3.28;;;;;;;;;;5085102;28;20052;-77
2023/06/11 17:00:03;;;;;;;13.00;3.40;;;;;;;;;;5090444;28;20048;-79
2023/06/11 17:03:43;;;;;;;9.98;3.63;;;;;;;;;;5084153;28;20070;-77
2023/06/11 17:07:24;;;;;;;8.13;3.20;;;;;;;;;;5081787;28;20048;-74
2023/06/11 17:11:04;;;;;;;7.32;3.10;;;;;;;;;;5086193;28;20056;-76
2023/06/11 17:14:45;;;;;;;7.80;3.13;;;;;;;;;;5087781;28;20495;-77
2023/06/11 17:18:06;;;;;;;8.10;3.13;;;;;;;;;;5082648;28;20070;-76
2023/06/11 17:20:35;;;;;;;5.45;2.40;;;;;;;;;;5088393;28;20056;-76
2023/06/11 17:23:06;;;;;;;9.10;2.72;;;;;;;;;;5088120;28;20056;-78
2023/06/11 17:25:34;;;;;;;9.80;2.65;;;;;;;;;;5088347;28;20473;-77
2023/06/11 17:28:06;;;;;;;11.55;2.67;;;;;;;;;;5086999;28;20046;-76
2023/06/11 17:30:33;;;;;;;10.32;3.03;;;;;;;;;;5086615;28;20320;-76
2023/06/11 17:33:02;;;;;;;9.20;2.90;;;;;;;;;;5076921;28;20560;-77
2023/06/11 17:35:31;;;;;;;9.77;3.30;;;;;;;;;;5081254;28;20484;-73
2023/06/11 17:37:57;;;;;;;8.02;3.00;;;;;;;;;;5089684;28;20072;-81
2023/06/11 17:40:27;;;;;;;9.07;3.13;;;;;;;;;;5094029;28;20059;-83